Etusivu
METAR-TAF:

METAR-TAF

Lentoasemat :

Sotilaslentoasema

Meppen, Saksa

Leveyspiiri: 52-43-24N, Pituuspiiri: 007-19-35E, korkeus merenpinnasta: 21 m

Tämänhetkinen sää

Tämä raportti tehtiin 19 minuuttia sitten, kello 13.20 UTC
Tuuli 19 kn lännestä/lounaasta puuskistuen 33 kn:hen
Lämpötila 10°C
Kosteus 76%
Ilmanpaine 1012 hPa

METAR: ETWM 221320Z AUTO 24019G33KT //// // ////// 10/06 Q1012 ///

Aika: 14:39 (13:39 UTC)


TAF: puuttuu

Säähavainnot ja -ennusteet yli 4000 lentoasemalta (METAR- ja TAF-raportit).

Käytössä olevat sääasemat on merkitty karttaan keltaisilla ja punaisilla pisteillä.

Aseta hiiri pisteen päälle nähdäksesi sääaseman nimen.

Klikkaa sitten nähdäksesi säähavainnot ja -ennusteet.

Kartan vaihtaminen: klikkaa mustalla rastilla varustettuja vihreitä pisteitä, niin voit zoomata sisään; viivalla varustettua vihreää pistettä, niin voit zoomata ulos tai vihreitä nuolia, niin pääset viereisille kartoille.


METAR-TAF: